Asolare — ZCDI3 — position and weather

sailwx.info

Track history (hours):
 
Tides and Currents Weather Stations Pressure Air Temp Water Temp Dewpoint Dewpoint Depression Visibility Wind Speed Wind Dir Waves Ship Positions

Asolare

Last reported at 2014-Jul-04 12:23 UTC. Time now 2014-Dec-22 23:29 UTC.
Position N 42°27' W 070°02'.
Warning: this ship's position is months out of date.

Length 47 m; draft 4.9 m.

Type: Sailing vessel. MMSI: 310413000.

Date/timePositionNaut miles runAvg speedWind from/ knotsBaromVisibWave heightAir tempDewpointWater temp
2014-Jul-04 12:23N 42°27' W 070°02'1011.7
2014-Jul-04 11:32N 42°18' W 070°07'1212.3
2014-Jul-04 10:33N 42°07' W 070°14'5 4.4
2014-Jul-04 09:28N 42°02' W 070°11'0 0.0
2014-Jul-04 06:16N 42°02' W 070°11'0 0.0
2014-Jul-04 01:28N 42°02' W 070°11'0 0.0
2014-Jul-04 00:28N 42°02' W 070°11'1 0.3
2014-Jul-03 21:25N 42°02' W 070°10'11 5.0
2014-Jul-03 19:17N 41°56' W 069°57'1112.7
2014-Jul-03 18:28N 41°46' W 069°53'1411.2
2014-Jul-03 17:14N 41°33' W 069°47'710.8
2014-Jul-03 16:34N 41°26' W 069°45'1312.8
2014-Jul-03 15:34N 41°26' W 070°02'1212.2
2014-Jul-03 14:34N 41°27' W 070°18'1211.8
2014-Jul-03 13:33N 41°29' W 070°34'10 9.8
2014-Jul-03 12:34N 41°27' W 070°46'1110.9
2014-Jul-03 11:33N 41°23' W 070°60'1111.2
2014-Jul-03 10:33N 41°24' W 071°15'7 6.6
2014-Jul-03 09:33N 41°30' W 071°20'0 0.0
2014-Jul-03 08:32N 41°30' W 071°20'0 0.0
2014-Jul-03 07:32N 41°30' W 071°20'0 0.0
2014-Jul-03 06:32N 41°30' W 071°20'0 0.0
2014-Jul-03 05:29N 41°30' W 071°20'0 0.0
2014-Jul-03 04:32N 41°30' W 071°20'0 0.0
2014-Jul-03 03:32N 41°30' W 071°20'0 0.0
2014-Jul-03 02:32N 41°30' W 071°20'0 0.0
2014-Jul-03 01:33N 41°30' W 071°20'0 0.0
2014-Jul-03 00:33N 41°30' W 071°20'0 0.0
2014-Jul-02 23:33N 41°30' W 071°20'0 0.0
2014-Jul-02 22:33N 41°30' W 071°20'0 0.0
2014-Jul-02 21:33N 41°30' W 071°20'0 0.0
2014-Jul-02 20:33N 41°30' W 071°20'1 0.7
2014-Jul-02 19:33N 41°29' W 071°20'1 0.5
2014-Jul-02 18:33N 41°29' W 071°19'0 0.0
2014-Jul-02 17:33N 41°29' W 071°19'0 0.0
2014-Jul-02 16:33N 41°29' W 071°19'0 0.0
2014-Jul-02 15:33N 41°29' W 071°19'0 0.0
2014-Jul-02 14:33N 41°29' W 071°19'0 0.0
2014-Jul-02 13:33N 41°29' W 071°19'0 0.0
2014-Jul-02 12:33N 41°29' W 071°19'0 0.0
2014-Jul-02 11:33N 41°29' W 071°19'0 0.0
2014-Jul-02 10:33N 41°29' W 071°19'0 0.0
2014-Jul-02 09:33N 41°29' W 071°19'0 0.0
2014-Jul-02 08:33N 41°29' W 071°19'0 0.0
2014-Jul-02 07:33N 41°29' W 071°19'0 0.0
2014-Jul-02 06:33N 41°29' W 071°19'0 0.0
2014-Jul-02 05:33N 41°29' W 071°19'0 0.0
2014-Jul-02 04:33N 41°29' W 071°19'0 0.0
2014-Jul-02 03:33N 41°29' W 071°19'0 0.0
2014-Jul-02 02:33N 41°29' W 071°19'0 0.0
2014-Jul-02 01:33N 41°29' W 071°19'0 0.0
2014-Jul-02 00:33N 41°29' W 071°19'0 0.0
2014-Jul-01 23:33N 41°29' W 071°19'0 0.0
2014-Jul-01 22:33N 41°29' W 071°19'0 0.0
2014-Jul-01 21:33N 41°29' W 071°19'0 0.0
2014-Jul-01 20:33N 41°29' W 071°19'0 0.0
2014-Jul-01 19:33N 41°29' W 071°19'0 0.0
2014-Jul-01 18:33N 41°29' W 071°19'0 0.0
2014-Jul-01 17:33N 41°29' W 071°19'2 2.3
2014-Jul-01 16:34N 41°28' W 071°22'1010.0
2014-Jul-01 15:33N 41°24' W 071°10'1111.2
2014-Jul-01 14:33N 41°24' W 070°55'1111.0
2014-Jul-01 13:33N 41°29' W 070°41'10 9.8
2014-Jul-01 12:33N 41°26' W 070°29'2 2.2
2014-Jul-01 11:28N 41°23' W 070°30'0 0.0
2014-Jul-01 10:28N 41°23' W 070°30'0 0.0
2014-Jul-01 09:31N 41°23' W 070°30'0 0.0
2014-Jul-01 08:31N 41°23' W 070°30'0 0.0
2014-Jul-01 07:31N 41°23' W 070°30'0 0.0
2014-Jul-01 06:31N 41°23' W 070°30'0 0.0
2014-Jul-01 05:31N 41°23' W 070°30'0 0.0
2014-Jul-01 04:31N 41°23' W 070°30'0 0.0
2014-Jul-01 03:31N 41°23' W 070°30'0 0.0
2014-Jul-01 02:31N 41°23' W 070°30'0 0.0
2014-Jul-01 01:31N 41°23' W 070°30'0 0.0
2014-Jul-01 00:31N 41°23' W 070°30'0 0.0
2014-Jun-30 23:32N 41°23' W 070°30'0 0.0
2014-Jun-30 22:31N 41°23' W 070°30'0 0.0
2014-Jun-30 21:31N 41°23' W 070°30'0 0.0
2014-Jun-30 20:31N 41°23' W 070°30'0 0.0
2014-Jun-30 19:31N 41°23' W 070°30'0 0.0
2014-Jun-30 18:31N 41°23' W 070°30'0 0.0
2014-Jun-30 17:33N 41°23' W 070°30'0 0.0
2014-Jun-30 16:33N 41°23' W 070°30'0 0.0
2014-Jun-30 15:33N 41°23' W 070°30'0 0.0
2014-Jun-30 14:33N 41°23' W 070°30'0 0.0
2014-Jun-30 13:33N 41°23' W 070°30'0 0.0
2014-Jun-30 12:33N 41°23' W 070°30'0 0.0
2014-Jun-30 11:33N 41°23' W 070°30'0 0.0
2014-Jun-30 10:33N 41°23' W 070°30'0 0.0
2014-Jun-30 09:33N 41°23' W 070°30'0 0.0
2014-Jun-30 08:33N 41°23' W 070°30'0 0.0
2014-Jun-30 07:33N 41°23' W 070°30'0 0.0
2014-Jun-30 06:33N 41°23' W 070°30'0 0.0
2014-Jun-30 05:34N 41°23' W 070°30'0 0.0
2014-Jun-30 04:33N 41°23' W 070°30'0 0.0
2014-Jun-30 03:34N 41°23' W 070°30'0 0.0
2014-Jun-30 02:33N 41°23' W 070°30'0 0.0
2014-Jun-30 01:34N 41°23' W 070°30'0 0.1
2014-Jun-30 00:34N 41°23' W 070°30'6 5.7
2014-Jun-29 23:33N 41°29' W 070°32'1110.5
2014-Jun-29 22:33N 41°27' W 070°46'1111.0
2014-Jun-29 21:33N 41°23' W 070°59'10 9.9
2014-Jun-29 20:33N 41°24' W 071°12'7 7.4
2014-Jun-29 19:33N 41°26' W 071°22'4 3.7
2014-Jun-29 18:32N 41°29' W 071°19'0 0.0
2014-Jun-29 17:32N 41°29' W 071°19'0 0.0
2014-Jun-29 16:33N 41°29' W 071°19'0 0.4
2014-Jun-29 15:33N 41°29' W 071°19'0 0.0
2014-Jun-29 14:33N 41°29' W 071°19'0 0.0
2014-Jun-29 13:33N 41°29' W 071°19'0 0.0
2014-Jun-29 12:33N 41°29' W 071°19'0 0.0
2014-Jun-29 11:33N 41°29' W 071°19'0 0.0
2014-Jun-29 10:33N 41°29' W 071°19'0 0.0
2014-Jun-29 09:33N 41°29' W 071°19'0 0.0
2014-Jun-29 08:33N 41°29' W 071°19'0 0.0
2014-Jun-29 07:33N 41°29' W 071°19'0 0.0
2014-Jun-29 06:33N 41°29' W 071°19'0 0.0
2014-Jun-29 05:33N 41°29' W 071°19'0 0.0
2014-Jun-29 04:33N 41°29' W 071°19'0 0.0
2014-Jun-29 03:33N 41°29' W 071°19'0 0.0
2014-Jun-29 02:33N 41°29' W 071°19'0 0.0
2014-Jun-29 01:33N 41°29' W 071°19'0 0.0
2014-Jun-29 00:33N 41°29' W 071°19'0 0.0
2014-Jun-28 23:33N 41°29' W 071°19'0 0.0
2014-Jun-28 22:33N 41°29' W 071°19'0 0.0
2014-Jun-28 21:33N 41°29' W 071°19'0 0.0
2014-Jun-28 20:33N 41°29' W 071°19'0 0.0
2014-Jun-28 19:33N 41°29' W 071°19'0 0.0
2014-Jun-28 18:33N 41°29' W 071°19'0 0.0
2014-Jun-28 17:33N 41°29' W 071°19'0 0.0
2014-Jun-28 16:33N 41°29' W 071°19'0 0.0
2014-Jun-28 15:33N 41°29' W 071°19'0 0.0
2014-Jun-28 14:33N 41°29' W 071°19'0 0.0
2014-Jun-28 13:33N 41°29' W 071°19'0 0.0
2014-Jun-28 12:33N 41°29' W 071°19'0 0.0
2014-Jun-28 11:33N 41°29' W 071°19'0 0.0
2014-Jun-28 10:33N 41°29' W 071°19'0 0.0
2014-Jun-28 09:33N 41°29' W 071°19'0 0.0
2014-Jun-28 08:33N 41°29' W 071°19'0 0.0
2014-Jun-28 07:33N 41°29' W 071°19'0 0.0
2014-Jun-28 06:33N 41°29' W 071°19'0 0.0
2014-Jun-28 05:33N 41°29' W 071°19'0 0.0
2014-Jun-28 04:33N 41°29' W 071°19'0 0.0
2014-Jun-28 03:33N 41°29' W 071°19'0 0.0
2014-Jun-28 02:33N 41°29' W 071°19'0 0.0
2014-Jun-28 01:33N 41°29' W 071°19'0 0.0
2014-Jun-28 00:33N 41°29' W 071°19'0 0.0
2014-Jun-27 23:30N 41°29' W 071°19'0 0.0
2014-Jun-27 22:33N 41°29' W 071°19'0 0.0
2014-Jun-27 21:33N 41°29' W 071°19'0 0.0
2014-Jun-27 20:33N 41°29' W 071°19'0 0.0
2014-Jun-27 19:33N 41°29' W 071°19'0 0.0
2014-Jun-27 18:33N 41°29' W 071°19'0 0.0
2014-Jun-27 17:33N 41°29' W 071°19'0 0.0
2014-Jun-27 16:33N 41°29' W 071°19'0 0.0
2014-Jun-27 15:33N 41°29' W 071°19'0 0.0
2014-Jun-27 14:30N 41°29' W 071°19'0 0.0
2014-Jun-27 13:33N 41°29' W 071°19'0 0.0
2014-Jun-27 12:33N 41°29' W 071°19'0 0.0
2014-Jun-27 11:30N 41°29' W 071°19'0 0.0
2014-Jun-27 10:33N 41°29' W 071°19'0 0.0
2014-Jun-27 09:33N 41°29' W 071°19'0 0.0
2014-Jun-27 08:27N 41°29' W 071°19'0 0.0
2014-Jun-27 07:33N 41°29' W 071°19'0 0.0
2014-Jun-27 06:33N 41°29' W 071°19'0 0.0
2014-Jun-27 05:33N 41°29' W 071°19'0 0.0
2014-Jun-27 04:33N 41°29' W 071°19'0 0.0
2014-Jun-27 03:33N 41°29' W 071°19'0 0.0
2014-Jun-27 02:30N 41°29' W 071°19'0 0.0
2014-Jun-27 01:33N 41°29' W 071°19'0 0.0
2014-Jun-27 00:33N 41°29' W 071°19'0 0.0
2014-Jun-26 23:33N 41°29' W 071°19'0 0.0
2014-Jun-26 22:33N 41°29' W 071°19'0 0.0
2014-Jun-26 21:33N 41°29' W 071°19'0 0.0
2014-Jun-26 20:33N 41°29' W 071°19'0 0.0
2014-Jun-26 19:33N 41°29' W 071°19'0 0.0
2014-Jun-26 18:33N 41°29' W 071°19'0 0.0
2014-Jun-26 17:33N 41°29' W 071°19'0 0.0
2014-Jun-26 16:30N 41°29' W 071°19'0 0.0
2014-Jun-26 15:33N 41°29' W 071°19'0 0.0
2014-Jun-26 14:33N 41°29' W 071°19'0 0.0
2014-Jun-26 13:33N 41°29' W 071°19'0 0.0
2014-Jun-26 12:33N 41°29' W 071°19'0 0.0
2014-Jun-26 11:33N 41°29' W 071°19'0 0.0
2014-Jun-26 10:33N 41°29' W 071°19'0 0.0
2014-Jun-26 09:30N 41°29' W 071°19'0 0.0
2014-Jun-26 08:33N 41°29' W 071°19'0 0.0
2014-Jun-26 07:30N 41°29' W 071°19'0 0.0
2014-Jun-26 06:33N 41°29' W 071°19'0 0.0
2014-Jun-26 05:33N 41°29' W 071°19'0 0.0
2014-Jun-26 04:30N 41°29' W 071°19'0 0.0
2014-Jun-26 03:33N 41°29' W 071°19'0 0.0
2014-Jun-26 02:33N 41°29' W 071°19'0 0.0
2014-Jun-26 01:33N 41°29' W 071°19'0 0.0
2014-Jun-26 00:33N 41°29' W 071°19'0 0.0
2014-Jun-25 23:33N 41°29' W 071°19'0 0.0
2014-Jun-25 22:33N 41°29' W 071°19'0 0.0
2014-Jun-25 21:33N 41°29' W 071°19'0 0.0
2014-Jun-25 20:33N 41°29' W 071°19'0 0.0
2014-Jun-25 19:30N 41°29' W 071°19'0 0.0
2014-Jun-25 18:33N 41°29' W 071°19'0 0.0
2014-Jun-25 17:33N 41°29' W 071°19'0 0.0
2014-Jun-25 16:33N 41°29' W 071°19'0 0.0
2014-Jun-25 15:33N 41°29' W 071°19'0 0.0
2014-Jun-25 14:30N 41°29' W 071°19'0 0.0
2014-Jun-25 13:33N 41°29' W 071°19'0 0.0
2014-Jun-25 12:33N 41°29' W 071°19'0 0.0
2014-Jun-25 11:32N 41°29' W 071°19'0 0.0
2014-Jun-25 10:32N 41°29' W 071°19'0 0.0
2014-Jun-25 09:32N 41°29' W 071°19'0 0.0
2014-Jun-25 08:32N 41°29' W 071°19'0 0.0
2014-Jun-25 07:32N 41°29' W 071°19'0 0.0
2014-Jun-25 06:32N 41°29' W 071°19'0 0.0
2014-Jun-25 05:32N 41°29' W 071°19'0 0.0
2014-Jun-25 04:32N 41°29' W 071°19'0 0.0
2014-Jun-25 03:32N 41°29' W 071°19'0 0.0
2014-Jun-25 02:32N 41°29' W 071°19'0 0.0
2014-Jun-25 01:32N 41°29' W 071°19'0 0.0
2014-Jun-25 00:32N 41°29' W 071°19'0 0.0
2014-Jun-24 23:32N 41°29' W 071°19'0 0.0
2014-Jun-24 22:32N 41°29' W 071°19'0 0.0
2014-Jun-24 21:32N 41°29' W 071°19'0 0.0
2014-Jun-24 20:32N 41°29' W 071°19'0 0.0
2014-Jun-24 19:32N 41°29' W 071°19'0 0.0
2014-Jun-24 18:32N 41°29' W 071°19'0 0.0
2014-Jun-24 17:32N 41°29' W 071°19'0 0.0
2014-Jun-24 16:32N 41°29' W 071°19'0 0.0
2014-Jun-24 15:32N 41°29' W 071°19'0 0.0
2014-Jun-24 14:32N 41°29' W 071°19'0 0.0
2014-Jun-24 13:29N 41°29' W 071°19'0 0.0
2014-Jun-24 12:29N 41°29' W 071°19'  
Track history (hours):
 
Tides and Currents Weather Stations Pressure Air Temp Water Temp Dewpoint Dewpoint Depression Visibility Wind Speed Wind Dir Waves Ship Positions

Asolare

Last reported at 2014-Jul-04 12:23 UTC. Time now 2014-Dec-22 23:29 UTC.
Position N 42°27' W 070°02'.
Warning: this ship's position is months out of date.

Length 47 m; draft 4.9 m.

Type: Sailing vessel. MMSI: 310413000.

Date/timePositionNaut miles runAvg speedWind from/ knotsBaromVisibWave heightAir tempDewpointWater temp
2014-Jul-04 12:23N 42°27' W 070°02'1011.7
2014-Jul-04 11:32N 42°18' W 070°07'1212.3
2014-Jul-04 10:33N 42°07' W 070°14'5 4.4
2014-Jul-04 09:28N 42°02' W 070°11'0 0.0
2014-Jul-04 06:16N 42°02' W 070°11'0 0.0
2014-Jul-04 01:28N 42°02' W 070°11'0 0.0
2014-Jul-04 00:28N 42°02' W 070°11'1 0.3
2014-Jul-03 21:25N 42°02' W 070°10'11 5.0
2014-Jul-03 19:17N 41°56' W 069°57'1112.7
2014-Jul-03 18:28N 41°46' W 069°53'1411.2
2014-Jul-03 17:14N 41°33' W 069°47'710.8
2014-Jul-03 16:34N 41°26' W 069°45'1312.8
2014-Jul-03 15:34N 41°26' W 070°02'1212.2
2014-Jul-03 14:34N 41°27' W 070°18'1211.8
2014-Jul-03 13:33N 41°29' W 070°34'10 9.8
2014-Jul-03 12:34N 41°27' W 070°46'1110.9
2014-Jul-03 11:33N 41°23' W 070°60'1111.2
2014-Jul-03 10:33N 41°24' W 071°15'7 6.6
2014-Jul-03 09:33N 41°30' W 071°20'0 0.0
2014-Jul-03 08:32N 41°30' W 071°20'0 0.0
2014-Jul-03 07:32N 41°30' W 071°20'0 0.0
2014-Jul-03 06:32N 41°30' W 071°20'0 0.0
2014-Jul-03 05:29N 41°30' W 071°20'0 0.0
2014-Jul-03 04:32N 41°30' W 071°20'0 0.0
2014-Jul-03 03:32N 41°30' W 071°20'0 0.0
2014-Jul-03 02:32N 41°30' W 071°20'0 0.0
2014-Jul-03 01:33N 41°30' W 071°20'0 0.0
2014-Jul-03 00:33N 41°30' W 071°20'0 0.0
2014-Jul-02 23:33N 41°30' W 071°20'0 0.0
2014-Jul-02 22:33N 41°30' W 071°20'0 0.0
2014-Jul-02 21:33N 41°30' W 071°20'0 0.0
2014-Jul-02 20:33N 41°30' W 071°20'1 0.7
2014-Jul-02 19:33N 41°29' W 071°20'1 0.5
2014-Jul-02 18:33N 41°29' W 071°19'0 0.0
2014-Jul-02 17:33N 41°29' W 071°19'0 0.0
2014-Jul-02 16:33N 41°29' W 071°19'0 0.0
2014-Jul-02 15:33N 41°29' W 071°19'0 0.0
2014-Jul-02 14:33N 41°29' W 071°19'0 0.0
2014-Jul-02 13:33N 41°29' W 071°19'0 0.0
2014-Jul-02 12:33N 41°29' W 071°19'0 0.0
2014-Jul-02 11:33N 41°29' W 071°19'0 0.0
2014-Jul-02 10:33N 41°29' W 071°19'0 0.0
2014-Jul-02 09:33N 41°29' W 071°19'0 0.0
2014-Jul-02 08:33N 41°29' W 071°19'0 0.0
2014-Jul-02 07:33N 41°29' W 071°19'0 0.0
2014-Jul-02 06:33N 41°29' W 071°19'0 0.0
2014-Jul-02 05:33N 41°29' W 071°19'0 0.0
2014-Jul-02 04:33N 41°29' W 071°19'0 0.0
2014-Jul-02 03:33N 41°29' W 071°19'0 0.0
2014-Jul-02 02:33N 41°29' W 071°19'0 0.0
2014-Jul-02 01:33N 41°29' W 071°19'0 0.0
2014-Jul-02 00:33N 41°29' W 071°19'0 0.0
2014-Jul-01 23:33N 41°29' W 071°19'0 0.0
2014-Jul-01 22:33N 41°29' W 071°19'0 0.0
2014-Jul-01 21:33N 41°29' W 071°19'0 0.0
2014-Jul-01 20:33N 41°29' W 071°19'0 0.0
2014-Jul-01 19:33N 41°29' W 071°19'0 0.0
2014-Jul-01 18:33N 41°29' W 071°19'0 0.0
2014-Jul-01 17:33N 41°29' W 071°19'2 2.3
2014-Jul-01 16:34N 41°28' W 071°22'1010.0
2014-Jul-01 15:33N 41°24' W 071°10'1111.2
2014-Jul-01 14:33N 41°24' W 070°55'1111.0
2014-Jul-01 13:33N 41°29' W 070°41'10 9.8
2014-Jul-01 12:33N 41°26' W 070°29'2 2.2
2014-Jul-01 11:28N 41°23' W 070°30'0 0.0
2014-Jul-01 10:28N 41°23' W 070°30'0 0.0
2014-Jul-01 09:31N 41°23' W 070°30'0 0.0
2014-Jul-01 08:31N 41°23' W 070°30'0 0.0
2014-Jul-01 07:31N 41°23' W 070°30'0 0.0
2014-Jul-01 06:31N 41°23' W 070°30'0 0.0
2014-Jul-01 05:31N 41°23' W 070°30'0 0.0
2014-Jul-01 04:31N 41°23' W 070°30'0 0.0
2014-Jul-01 03:31N 41°23' W 070°30'0 0.0
2014-Jul-01 02:31N 41°23' W 070°30'0 0.0
2014-Jul-01 01:31N 41°23' W 070°30'0 0.0
2014-Jul-01 00:31N 41°23' W 070°30'0 0.0
2014-Jun-30 23:32N 41°23' W 070°30'0 0.0
2014-Jun-30 22:31N 41°23' W 070°30'0 0.0
2014-Jun-30 21:31N 41°23' W 070°30'0 0.0
2014-Jun-30 20:31N 41°23' W 070°30'0 0.0
2014-Jun-30 19:31N 41°23' W 070°30'0 0.0
2014-Jun-30 18:31N 41°23' W 070°30'0 0.0
2014-Jun-30 17:33N 41°23' W 070°30'0 0.0
2014-Jun-30 16:33N 41°23' W 070°30'0 0.0
2014-Jun-30 15:33N 41°23' W 070°30'0 0.0
2014-Jun-30 14:33N 41°23' W 070°30'0 0.0
2014-Jun-30 13:33N 41°23' W 070°30'0 0.0
2014-Jun-30 12:33N 41°23' W 070°30'0 0.0
2014-Jun-30 11:33N 41°23' W 070°30'0 0.0
2014-Jun-30 10:33N 41°23' W 070°30'0 0.0
2014-Jun-30 09:33N 41°23' W 070°30'0 0.0
2014-Jun-30 08:33N 41°23' W 070°30'0 0.0
2014-Jun-30 07:33N 41°23' W 070°30'0 0.0
2014-Jun-30 06:33N 41°23' W 070°30'0 0.0
2014-Jun-30 05:34N 41°23' W 070°30'0 0.0
2014-Jun-30 04:33N 41°23' W 070°30'0 0.0
2014-Jun-30 03:34N 41°23' W 070°30'0 0.0
2014-Jun-30 02:33N 41°23' W 070°30'0 0.0
2014-Jun-30 01:34N 41°23' W 070°30'0 0.1
2014-Jun-30 00:34N 41°23' W 070°30'6 5.7
2014-Jun-29 23:33N 41°29' W 070°32'1110.5
2014-Jun-29 22:33N 41°27' W 070°46'1111.0
2014-Jun-29 21:33N 41°23' W 070°59'10 9.9
2014-Jun-29 20:33N 41°24' W 071°12'7 7.4
2014-Jun-29 19:33N 41°26' W 071°22'4 3.7
2014-Jun-29 18:32N 41°29' W 071°19'0 0.0
2014-Jun-29 17:32N 41°29' W 071°19'0 0.0
2014-Jun-29 16:33N 41°29' W 071°19'0 0.4
2014-Jun-29 15:33N 41°29' W 071°19'0 0.0
2014-Jun-29 14:33N 41°29' W 071°19'0 0.0
2014-Jun-29 13:33N 41°29' W 071°19'0 0.0
2014-Jun-29 12:33N 41°29' W 071°19'0 0.0
2014-Jun-29 11:33N 41°29' W 071°19'0 0.0
2014-Jun-29 10:33N 41°29' W 071°19'0 0.0
2014-Jun-29 09:33N 41°29' W 071°19'0 0.0
2014-Jun-29 08:33N 41°29' W 071°19'0 0.0
2014-Jun-29 07:33N 41°29' W 071°19'0 0.0
2014-Jun-29 06:33N 41°29' W 071°19'0 0.0
2014-Jun-29 05:33N 41°29' W 071°19'0 0.0
2014-Jun-29 04:33N 41°29' W 071°19'0 0.0
2014-Jun-29 03:33N 41°29' W 071°19'0 0.0
2014-Jun-29 02:33N 41°29' W 071°19'0 0.0
2014-Jun-29 01:33N 41°29' W 071°19'0 0.0
2014-Jun-29 00:33N 41°29' W 071°19'0 0.0
2014-Jun-28 23:33N 41°29' W 071°19'0 0.0
2014-Jun-28 22:33N 41°29' W 071°19'0 0.0
2014-Jun-28 21:33N 41°29' W 071°19'0 0.0
2014-Jun-28 20:33N 41°29' W 071°19'0 0.0
2014-Jun-28 19:33N 41°29' W 071°19'0 0.0
2014-Jun-28 18:33N 41°29' W 071°19'0 0.0
2014-Jun-28 17:33N 41°29' W 071°19'0 0.0
2014-Jun-28 16:33N 41°29' W 071°19'0 0.0
2014-Jun-28 15:33N 41°29' W 071°19'0 0.0
2014-Jun-28 14:33N 41°29' W 071°19'0 0.0
2014-Jun-28 13:33N 41°29' W 071°19'0 0.0
2014-Jun-28 12:33N 41°29' W 071°19'0 0.0
2014-Jun-28 11:33N 41°29' W 071°19'0 0.0
2014-Jun-28 10:33N 41°29' W 071°19'0 0.0
2014-Jun-28 09:33N 41°29' W 071°19'0 0.0
2014-Jun-28 08:33N 41°29' W 071°19'0 0.0
2014-Jun-28 07:33N 41°29' W 071°19'0 0.0
2014-Jun-28 06:33N 41°29' W 071°19'0 0.0
2014-Jun-28 05:33N 41°29' W 071°19'0 0.0
2014-Jun-28 04:33N 41°29' W 071°19'0 0.0
2014-Jun-28 03:33N 41°29' W 071°19'0 0.0
2014-Jun-28 02:33N 41°29' W 071°19'0 0.0
2014-Jun-28 01:33N 41°29' W 071°19'0 0.0
2014-Jun-28 00:33N 41°29' W 071°19'0 0.0
2014-Jun-27 23:30N 41°29' W 071°19'0 0.0
2014-Jun-27 22:33N 41°29' W 071°19'0 0.0
2014-Jun-27 21:33N 41°29' W 071°19'0 0.0
2014-Jun-27 20:33N 41°29' W 071°19'0 0.0
2014-Jun-27 19:33N 41°29' W 071°19'0 0.0
2014-Jun-27 18:33N 41°29' W 071°19'0 0.0
2014-Jun-27 17:33N 41°29' W 071°19'0 0.0
2014-Jun-27 16:33N 41°29' W 071°19'0 0.0
2014-Jun-27 15:33N 41°29' W 071°19'0 0.0
2014-Jun-27 14:30N 41°29' W 071°19'0 0.0
2014-Jun-27 13:33N 41°29' W 071°19'0 0.0
2014-Jun-27 12:33N 41°29' W 071°19'0 0.0
2014-Jun-27 11:30N 41°29' W 071°19'0 0.0
2014-Jun-27 10:33N 41°29' W 071°19'0 0.0
2014-Jun-27 09:33N 41°29' W 071°19'0 0.0
2014-Jun-27 08:27N 41°29' W 071°19'0 0.0
2014-Jun-27 07:33N 41°29' W 071°19'0 0.0
2014-Jun-27 06:33N 41°29' W 071°19'0 0.0
2014-Jun-27 05:33N 41°29' W 071°19'0 0.0
2014-Jun-27 04:33N 41°29' W 071°19'0 0.0
2014-Jun-27 03:33N 41°29' W 071°19'0 0.0
2014-Jun-27 02:30N 41°29' W 071°19'0 0.0
2014-Jun-27 01:33N 41°29' W 071°19'0 0.0
2014-Jun-27 00:33N 41°29' W 071°19'0 0.0
2014-Jun-26 23:33N 41°29' W 071°19'0 0.0
2014-Jun-26 22:33N 41°29' W 071°19'0 0.0
2014-Jun-26 21:33N 41°29' W 071°19'0 0.0
2014-Jun-26 20:33N 41°29' W 071°19'0 0.0
2014-Jun-26 19:33N 41°29' W 071°19'0 0.0
2014-Jun-26 18:33N 41°29' W 071°19'0 0.0
2014-Jun-26 17:33N 41°29' W 071°19'0 0.0
2014-Jun-26 16:30N 41°29' W 071°19'0 0.0
2014-Jun-26 15:33N 41°29' W 071°19'0 0.0
2014-Jun-26 14:33N 41°29' W 071°19'0 0.0
2014-Jun-26 13:33N 41°29' W 071°19'0 0.0
2014-Jun-26 12:33N 41°29' W 071°19'0 0.0
2014-Jun-26 11:33N 41°29' W 071°19'0 0.0
2014-Jun-26 10:33N 41°29' W 071°19'0 0.0
2014-Jun-26 09:30N 41°29' W 071°19'0 0.0
2014-Jun-26 08:33N 41°29' W 071°19'0 0.0
2014-Jun-26 07:30N 41°29' W 071°19'0 0.0
2014-Jun-26 06:33N 41°29' W 071°19'0 0.0
2014-Jun-26 05:33N 41°29' W 071°19'0 0.0
2014-Jun-26 04:30N 41°29' W 071°19'0 0.0
2014-Jun-26 03:33N 41°29' W 071°19'0 0.0
2014-Jun-26 02:33N 41°29' W 071°19'0 0.0
2014-Jun-26 01:33N 41°29' W 071°19'0 0.0
2014-Jun-26 00:33N 41°29' W 071°19'0 0.0
2014-Jun-25 23:33N 41°29' W 071°19'0 0.0
2014-Jun-25 22:33N 41°29' W 071°19'0 0.0
2014-Jun-25 21:33N 41°29' W 071°19'0 0.0
2014-Jun-25 20:33N 41°29' W 071°19'0 0.0
2014-Jun-25 19:30N 41°29' W 071°19'0 0.0
2014-Jun-25 18:33N 41°29' W 071°19'0 0.0
2014-Jun-25 17:33N 41°29' W 071°19'0 0.0
2014-Jun-25 16:33N 41°29' W 071°19'0 0.0
2014-Jun-25 15:33N 41°29' W 071°19'0 0.0
2014-Jun-25 14:30N 41°29' W 071°19'0 0.0
2014-Jun-25 13:33N 41°29' W 071°19'0 0.0
2014-Jun-25 12:33N 41°29' W 071°19'0 0.0
2014-Jun-25 11:32N 41°29' W 071°19'0 0.0
2014-Jun-25 10:32N 41°29' W 071°19'0 0.0
2014-Jun-25 09:32N 41°29' W 071°19'0 0.0
2014-Jun-25 08:32N 41°29' W 071°19'0 0.0
2014-Jun-25 07:32N 41°29' W 071°19'0 0.0
2014-Jun-25 06:32N 41°29' W 071°19'0 0.0
2014-Jun-25 05:32N 41°29' W 071°19'0 0.0
2014-Jun-25 04:32N 41°29' W 071°19'0 0.0
2014-Jun-25 03:32N 41°29' W 071°19'0 0.0
2014-Jun-25 02:32N 41°29' W 071°19'0 0.0
2014-Jun-25 01:32N 41°29' W 071°19'0 0.0
2014-Jun-25 00:32N 41°29' W 071°19'0 0.0
2014-Jun-24 23:32N 41°29' W 071°19'0 0.0
2014-Jun-24 22:32N 41°29' W 071°19'0 0.0
2014-Jun-24 21:32N 41°29' W 071°19'0 0.0
2014-Jun-24 20:32N 41°29' W 071°19'0 0.0
2014-Jun-24 19:32N 41°29' W 071°19'0 0.0
2014-Jun-24 18:32N 41°29' W 071°19'0 0.0
2014-Jun-24 17:32N 41°29' W 071°19'0 0.0
2014-Jun-24 16:32N 41°29' W 071°19'0 0.0
2014-Jun-24 15:32N 41°29' W 071°19'0 0.0
2014-Jun-24 14:32N 41°29' W 071°19'0 0.0
2014-Jun-24 13:29N 41°29' W 071°19'0 0.0
2014-Jun-24 12:29N 41°29' W 071°19'  

Dump ship's entire track history